createdAt,value
2022-08-19T00:01:42.396Z,12.85
2022-08-19T00:04:12.578Z,11.85
2022-08-19T00:06:41.411Z,13.13
2022-08-19T00:09:10.715Z,13.02
2022-08-19T00:11:38.779Z,12.20
2022-08-19T00:14:07.429Z,12.02
2022-08-19T00:16:34.621Z,12.82
2022-08-19T00:19:01.788Z,12.05
2022-08-19T00:21:29.030Z,12.77
2022-08-19T00:23:59.207Z,12.90
2022-08-19T00:26:28.493Z,12.40
2022-08-19T00:28:56.073Z,12.07
2022-08-19T00:31:23.550Z,12.70
2022-08-19T00:33:51.500Z,12.23
2022-08-19T00:36:20.333Z,12.23
2022-08-19T00:38:47.497Z,12.63
2022-08-19T00:41:17.329Z,11.30
2022-08-19T00:43:44.695Z,11.93
2022-08-19T00:46:11.583Z,10.95
2022-08-19T00:48:38.716Z,12.13
2022-08-19T00:51:06.556Z,11.75
2022-08-19T00:53:35.111Z,13.45
2022-08-19T00:56:04.178Z,13.40
2022-08-19T00:58:35.330Z,12.55
2022-08-19T01:01:03.824Z,14.13
2022-08-19T01:03:57.192Z,15.75
2022-08-19T01:06:20.105Z,15.63
2022-08-19T01:08:50.116Z,16.02
2022-08-19T01:11:17.857Z,16.00
2022-08-19T01:13:49.606Z,16.42
2022-08-19T01:16:20.232Z,16.67
2022-08-19T01:18:47.988Z,15.00
2022-08-19T01:21:43.162Z,14.85
2022-08-19T01:24:10.696Z,14.65
2022-08-19T01:26:44.603Z,14.05
2022-08-19T01:29:12.464Z,14.55
2022-08-19T01:31:40.212Z,13.82
2022-08-19T01:34:07.747Z,13.48
2022-08-19T01:36:43.122Z,13.43
2022-08-19T01:39:13.382Z,13.32
2022-08-19T01:41:40.996Z,12.30
2022-08-19T01:44:17.670Z,13.15
2022-08-19T01:46:49.236Z,12.25
2022-08-19T01:49:18.389Z,12.73
2022-08-19T01:51:45.339Z,13.40
2022-08-19T01:54:23.166Z,12.98
2022-08-19T01:56:58.898Z,12.95
2022-08-19T01:59:26.029Z,12.90
2022-08-19T02:01:53.058Z,13.13
2022-08-19T02:04:20.184Z,12.80
2022-08-19T02:06:47.301Z,13.00
2022-08-19T02:09:14.284Z,11.98
2022-08-19T02:11:42.731Z,13.02
2022-08-19T02:14:10.051Z,13.27
2022-08-19T02:16:37.841Z,12.75
2022-08-19T02:19:05.453Z,14.73
2022-08-19T02:21:33.256Z,12.45
2022-08-19T02:24:00.459Z,13.40
2022-08-19T02:26:27.773Z,12.45
2022-08-19T02:28:55.713Z,12.70
2022-08-19T02:31:25.915Z,13.40
2022-08-19T02:33:56.904Z,13.80
2022-08-19T02:36:26.166Z,13.85
2022-08-19T02:38:54.919Z,12.75
2022-08-19T02:41:28.309Z,13.43
2022-08-19T02:44:29.086Z,14.75
2022-08-19T02:46:48.079Z,16.35
2022-08-19T02:49:17.454Z,16.77
2022-08-19T02:51:46.794Z,16.63
2022-08-19T02:54:15.446Z,16.58
2022-08-19T02:56:44.237Z,17.08
2022-08-19T02:59:12.886Z,16.05
2022-08-19T03:01:42.259Z,16.10
2022-08-19T03:04:11.810Z,16.73
2022-08-19T03:06:40.573Z,16.92
2022-08-19T03:09:07.918Z,17.10
2022-08-19T03:11:35.617Z,16.65
2022-08-19T03:14:04.652Z,16.23
2022-08-19T03:16:35.060Z,16.33
2022-08-19T03:19:02.967Z,15.48
2022-08-19T03:21:32.422Z,14.82
2022-08-19T03:24:02.155Z,16.00
2022-08-19T03:26:30.169Z,15.40
2022-08-19T03:28:58.380Z,15.85
2022-08-19T03:31:44.764Z,15.68
2022-08-19T03:34:19.440Z,15.95
2022-08-19T03:36:47.370Z,15.85
2022-08-19T03:39:14.802Z,15.77
2022-08-19T03:41:46.269Z,15.40
2022-08-19T03:44:21.720Z,15.93
2022-08-19T03:46:52.522Z,16.33
2022-08-19T03:49:20.986Z,17.27
2022-08-19T03:51:49.529Z,16.35
2022-08-19T03:54:23.945Z,17.48
2022-08-19T03:56:54.577Z,17.70
2022-08-19T03:59:28.772Z,16.70
2022-08-19T04:02:01.886Z,16.38
2022-08-19T04:04:31.914Z,14.32
2022-08-19T04:06:59.061Z,15.55
2022-08-19T04:09:26.762Z,15.15
2022-08-19T04:11:55.555Z,15.90
2022-08-19T04:14:26.185Z,15.05
2022-08-19T04:16:53.536Z,15.27
2022-08-19T04:19:21.761Z,14.45
2022-08-19T04:21:52.250Z,15.63
2022-08-19T04:24:20.144Z,12.95
2022-08-19T04:26:47.887Z,13.15
2022-08-19T04:29:26.139Z,14.10
2022-08-19T04:31:55.733Z,13.25
2022-08-19T04:34:25.079Z,13.07
2022-08-19T04:36:53.915Z,13.15
2022-08-19T04:39:50.120Z,11.52
2022-08-19T04:42:37.450Z,10.63
2022-08-19T04:45:09.464Z,12.13
2022-08-19T04:47:47.799Z,11.68
2022-08-19T04:50:27.760Z,11.00
2022-08-19T04:52:56.580Z,11.30
2022-08-19T04:55:24.059Z,10.70
2022-08-19T04:57:51.746Z,10.75
2022-08-19T05:00:18.848Z,11.10
2022-08-19T05:02:45.738Z,9.65
2022-08-19T05:05:13.560Z,11.05
2022-08-19T05:07:42.053Z,9.80
2022-08-19T05:10:09.409Z,11.80
2022-08-19T05:12:36.601Z,10.45
2022-08-19T05:15:07.367Z,9.63
2022-08-19T05:17:38.410Z,9.85
2022-08-19T05:20:26.419Z,10.38
2022-08-19T05:22:53.526Z,10.77
2022-08-19T05:25:22.269Z,9.05
2022-08-19T05:27:49.580Z,9.45
2022-08-19T05:30:17.128Z,8.93
2022-08-19T05:32:44.481Z,7.90
2022-08-19T05:35:12.703Z,9.10
2022-08-19T05:37:41.356Z,9.00
2022-08-19T05:40:10.325Z,9.52
2022-08-19T05:42:38.038Z,8.65
2022-08-19T05:45:05.541Z,8.57
2022-08-19T05:47:33.236Z,8.32
2022-08-19T05:50:00.532Z,8.95
2022-08-19T05:52:29.072Z,8.65
2022-08-19T05:54:57.649Z,9.20
2022-08-19T05:57:25.379Z,9.13
2022-08-19T05:59:58.287Z,8.98
2022-08-19T06:02:31.814Z,8.57
2022-08-19T06:04:59.122Z,8.63
2022-08-19T06:07:26.643Z,8.27
2022-08-19T06:10:00.403Z,8.40
2022-08-19T06:12:36.035Z,8.43
2022-08-19T06:15:07.506Z,8.40
2022-08-19T06:17:36.171Z,7.90
2022-08-19T06:20:09.757Z,7.78
2022-08-19T06:22:45.477Z,8.70
2022-08-19T06:25:14.035Z,8.68
2022-08-19T06:27:58.560Z,8.23
2022-08-19T06:30:29.424Z,8.48
2022-08-19T06:32:56.837Z,8.32
2022-08-19T06:35:23.763Z,7.80
2022-08-19T06:37:50.733Z,7.88
2022-08-19T06:40:17.982Z,8.02
2022-08-19T06:42:54.931Z,7.88
2022-08-19T06:45:24.883Z,8.48
2022-08-19T06:47:56.914Z,7.70
2022-08-19T06:50:25.160Z,7.75
2022-08-19T06:52:53.294Z,7.72
2022-08-19T06:55:20.883Z,7.95
2022-08-19T06:57:49.172Z,8.10
2022-08-19T07:00:16.959Z,7.10
2022-08-19T07:02:49.558Z,7.47
2022-08-19T07:05:23.159Z,8.20
2022-08-19T07:07:51.180Z,7.43
2022-08-19T07:10:18.734Z,7.28
2022-08-19T07:12:46.296Z,8.32
2022-08-19T07:15:13.600Z,7.45
2022-08-19T07:17:41.888Z,7.78
2022-08-19T07:22:57.620Z,7.28
2022-08-19T07:25:32.287Z,8.05
2022-08-19T07:28:01.531Z,7.30
2022-08-19T07:30:29.395Z,7.70
2022-08-19T07:32:58.557Z,7.35
2022-08-19T07:35:26.113Z,7.25
2022-08-19T07:37:54.186Z,7.15
2022-08-19T07:40:21.323Z,29.65
2022-08-19T07:42:48.255Z,28.63
2022-08-19T07:45:16.973Z,6.90
2022-08-19T07:47:49.048Z,7.63
2022-08-19T07:50:20.630Z,6.97
2022-08-19T07:52:50.545Z,6.95
2022-08-19T07:55:41.106Z,6.82
2022-08-19T07:58:08.478Z,6.55
2022-08-19T08:00:36.301Z,6.43
2022-08-19T08:03:03.328Z,6.43
2022-08-19T08:05:49.581Z,6.28
2022-08-19T08:08:44.241Z,6.05
2022-08-19T08:11:19.890Z,7.13
2022-08-19T08:16:39.661Z,6.32
2022-08-19T08:19:20.611Z,6.10
2022-08-19T08:21:55.783Z,6.32
2022-08-19T08:24:22.989Z,7.10
2022-08-19T08:26:59.973Z,6.32
2022-08-19T08:29:34.526Z,6.30
2022-08-19T08:32:03.309Z,6.85
2022-08-19T08:34:37.981Z,7.03
2022-08-19T08:37:05.092Z,6.25
2022-08-19T08:39:33.118Z,6.55
2022-08-19T08:42:33.441Z,6.47
2022-08-19T08:45:06.782Z,6.47
2022-08-19T08:47:58.045Z,5.93
2022-08-19T08:50:44.065Z,6.47
2022-08-19T08:53:29.209Z,6.72
2022-08-19T08:55:57.882Z,6.60
2022-08-19T08:58:34.344Z,6.25
2022-08-19T09:01:01.521Z,6.45
2022-08-19T09:03:31.611Z,7.70
2022-08-19T09:06:04.438Z,6.38
2022-08-19T09:09:12.266Z,6.28
2022-08-19T09:12:13.160Z,6.13
2022-08-19T09:15:02.742Z,6.55
2022-08-19T09:17:32.161Z,6.43
2022-08-19T09:20:05.126Z,7.53
2022-08-19T09:22:32.620Z,6.50
2022-08-19T09:24:59.608Z,6.82
2022-08-19T09:27:42.017Z,6.55
2022-08-19T09:30:25.456Z,6.55
2022-08-19T09:32:55.608Z,6.97
2022-08-19T09:35:28.305Z,6.50
2022-08-19T09:40:33.468Z,6.88
2022-08-19T09:43:09.933Z,6.75
2022-08-19T09:45:38.491Z,6.60
2022-08-19T09:48:06.468Z,7.55
2022-08-19T09:50:35.997Z,6.50
2022-08-19T09:53:03.031Z,6.22
2022-08-19T09:55:31.719Z,6.03
2022-08-19T09:58:01.842Z,6.55
2022-08-19T10:00:28.968Z,6.68
2022-08-19T10:02:56.323Z,6.80
2022-08-19T10:05:42.712Z,7.35
2022-08-19T10:08:13.333Z,7.75
2022-08-19T10:10:47.189Z,6.80
2022-08-19T10:13:17.165Z,7.07
2022-08-19T10:15:47.237Z,8.18
2022-08-19T10:18:19.305Z,6.82
2022-08-19T10:20:52.697Z,7.32
2022-08-19T10:23:22.006Z,7.20
2022-08-19T10:25:50.654Z,7.85
2022-08-19T10:28:19.544Z,7.28
2022-08-19T10:30:48.027Z,8.25
2022-08-19T10:33:16.152Z,7.25
2022-08-19T10:36:06.770Z,7.78
2022-08-19T10:38:34.918Z,6.90
2022-08-19T10:41:13.595Z,6.82
2022-08-19T10:43:41.730Z,6.38
2022-08-19T10:46:16.649Z,7.78
2022-08-19T10:48:45.122Z,6.88
2022-08-19T10:51:31.447Z,7.00
2022-08-19T10:54:00.325Z,7.25
2022-08-19T10:56:46.975Z,6.82
2022-08-19T10:59:16.783Z,6.70
2022-08-19T11:01:45.401Z,6.38
2022-08-19T11:04:14.595Z,7.28
2022-08-19T11:06:44.343Z,7.15
2022-08-19T11:09:12.882Z,7.28
2022-08-19T11:11:42.889Z,9.13
2022-08-19T11:14:12.991Z,6.70
2022-08-19T11:16:40.568Z,8.38
2022-08-19T11:19:09.482Z,7.38
2022-08-19T11:21:40.292Z,7.78
2022-08-19T11:24:17.695Z,7.28
2022-08-19T11:26:45.678Z,7.80
2022-08-19T11:29:14.245Z,6.25
2022-08-19T11:31:44.846Z,7.60
2022-08-19T11:34:15.799Z,8.30
2022-08-19T11:36:45.772Z,8.32
2022-08-19T11:39:15.994Z,9.65
2022-08-19T11:41:43.162Z,6.95
2022-08-19T11:44:10.373Z,7.65
2022-08-19T11:46:41.589Z,7.10
2022-08-19T11:49:13.857Z,8.10
2022-08-19T11:51:44.169Z,7.22
2022-08-19T11:54:11.827Z,9.30
2022-08-19T11:56:39.852Z,10.57
2022-08-19T11:59:12.748Z,8.57
2022-08-19T12:01:44.567Z,7.53
2022-08-19T12:04:12.202Z,7.20
2022-08-19T12:06:40.746Z,8.23
2022-08-19T12:09:10.477Z,8.90
2022-08-19T12:11:39.243Z,6.80
2022-08-19T12:14:06.495Z,7.30
2022-08-19T12:16:33.948Z,6.22
2022-08-19T12:19:05.074Z,6.70
2022-08-19T12:21:34.549Z,7.72
2022-08-19T12:24:03.266Z,7.65
2022-08-19T12:26:32.393Z,6.78
2022-08-19T12:29:00.528Z,7.15
2022-08-19T12:31:30.967Z,7.75
2022-08-19T12:33:58.146Z,6.78
2022-08-19T12:36:25.842Z,7.50
2022-08-19T12:38:53.845Z,6.65
2022-08-19T12:41:24.249Z,7.40
2022-08-19T12:43:51.251Z,7.47
2022-08-19T12:46:20.020Z,7.85
2022-08-19T12:48:54.076Z,6.63
2022-08-19T12:51:23.138Z,6.93
2022-08-19T12:53:50.894Z,6.93
2022-08-19T12:56:22.386Z,7.07
2022-08-19T12:58:52.944Z,6.65
2022-08-19T13:01:22.609Z,7.72
2022-08-19T13:03:53.130Z,7.18
2022-08-19T13:06:20.501Z,7.10
2022-08-19T13:08:48.135Z,8.38
2022-08-19T13:11:18.765Z,6.80
2022-08-19T13:13:47.454Z,6.95
2022-08-19T13:16:15.468Z,7.20
2022-08-19T13:18:44.935Z,7.07
2022-08-19T13:21:14.001Z,7.00
2022-08-19T13:23:42.174Z,6.85
2022-08-19T13:26:10.637Z,6.13
2022-08-19T13:28:56.130Z,7.78
2022-08-19T13:31:44.436Z,6.85
2022-08-19T13:34:11.863Z,6.50
2022-08-19T13:36:39.595Z,6.82
2022-08-19T13:39:08.607Z,7.05
2022-08-19T13:41:37.192Z,7.18
2022-08-19T13:44:07.592Z,7.20
2022-08-19T13:46:34.506Z,6.43
2022-08-19T13:49:01.484Z,6.90
2022-08-19T13:51:28.909Z,7.78
2022-08-19T13:53:56.335Z,6.60
2022-08-19T13:56:26.212Z,7.20
2022-08-19T13:58:54.620Z,7.80
2022-08-19T14:01:24.336Z,7.68
2022-08-19T14:03:51.778Z,6.95
2022-08-19T14:06:19.429Z,6.50
2022-08-19T14:08:47.398Z,7.30
2022-08-19T14:11:14.958Z,7.43
2022-08-19T14:13:42.335Z,6.70
2022-08-19T14:16:14.105Z,6.57
2022-08-19T14:18:41.636Z,7.22
2022-08-19T14:21:15.009Z,7.05
2022-08-19T14:23:41.913Z,7.28
2022-08-19T14:26:12.569Z,7.45
2022-08-19T14:28:41.876Z,5.25
2022-08-19T14:31:19.406Z,5.50
2022-08-19T14:33:48.298Z,5.70
2022-08-19T14:36:15.374Z,5.22
2022-08-19T14:38:42.841Z,4.93
2022-08-19T14:41:18.008Z,4.80
2022-08-19T14:43:47.672Z,5.18
2022-08-19T14:46:21.488Z,4.50
2022-08-19T14:48:51.679Z,4.82
2022-08-19T14:51:21.912Z,4.40
2022-08-19T14:53:49.823Z,4.63
2022-08-19T14:56:20.903Z,5.55
2022-08-19T14:58:48.392Z,4.13
2022-08-19T15:01:15.432Z,4.63
2022-08-19T15:03:42.463Z,5.55
2022-08-19T15:06:12.757Z,5.03
2022-08-19T15:08:42.551Z,4.97
2022-08-19T15:11:11.717Z,4.90
2022-08-19T15:13:39.034Z,5.43
2022-08-19T15:16:06.685Z,5.40
2022-08-19T15:18:46.109Z,5.03
2022-08-19T15:21:15.337Z,5.07
2022-08-19T15:23:42.280Z,5.88
2022-08-19T15:26:16.155Z,4.53
2022-08-19T15:28:43.530Z,5.65
2022-08-19T15:31:17.075Z,5.03
2022-08-19T15:33:52.638Z,5.30
2022-08-19T15:36:19.556Z,6.03
2022-08-19T15:38:46.624Z,5.75
2022-08-19T15:41:24.217Z,5.25
2022-08-19T15:43:55.493Z,5.28
2022-08-19T15:46:25.266Z,5.57
2022-08-19T15:48:57.216Z,5.32
2022-08-19T15:51:30.463Z,5.85
2022-08-19T15:53:59.422Z,6.50
2022-08-19T15:56:27.623Z,6.03
2022-08-19T15:59:13.784Z,6.93
2022-08-19T16:01:59.381Z,5.43
2022-08-19T16:04:45.447Z,5.97
2022-08-19T16:07:12.860Z,5.72
2022-08-19T16:09:40.360Z,6.15
2022-08-19T16:12:08.629Z,5.88
2022-08-19T16:14:38.105Z,5.30
2022-08-19T16:17:05.738Z,6.68
2022-08-19T16:19:33.370Z,5.32
2022-08-19T16:22:00.348Z,5.45
2022-08-19T16:24:28.460Z,4.88
2022-08-19T16:26:56.258Z,5.47
2022-08-19T16:29:33.418Z,5.97
2022-08-19T16:32:06.618Z,5.93
2022-08-19T16:34:33.946Z,6.57
2022-08-19T16:37:01.954Z,5.00
2022-08-19T16:39:29.385Z,5.40
2022-08-19T16:41:56.523Z,5.53
2022-08-19T16:44:23.606Z,5.70
2022-08-19T16:46:59.069Z,6.13
2022-08-19T16:49:53.590Z,5.78
2022-08-19T16:52:19.178Z,5.22
2022-08-19T16:54:46.210Z,5.47
2022-08-19T16:57:13.490Z,6.28
2022-08-19T16:59:42.484Z,5.22
2022-08-19T17:02:16.631Z,5.55
2022-08-19T17:04:44.008Z,5.65
2022-08-19T17:07:11.035Z,5.78
2022-08-19T17:09:38.120Z,5.32
2022-08-19T17:12:05.907Z,6.03
2022-08-19T17:14:32.845Z,5.75
2022-08-19T17:16:59.735Z,6.10
2022-08-19T17:19:28.306Z,5.80
2022-08-19T17:21:57.759Z,6.43
2022-08-19T17:24:24.681Z,5.60
2022-08-19T17:26:52.200Z,5.95
2022-08-19T17:29:19.107Z,6.38
2022-08-19T17:31:46.022Z,5.93
2022-08-19T17:34:13.116Z,11.32
2022-08-19T17:36:40.105Z,7.32
2022-08-19T17:39:07.077Z,7.47
2022-08-19T17:41:34.869Z,7.15
2022-08-19T17:44:04.048Z,7.07
2022-08-19T17:46:32.048Z,6.47
2022-08-19T17:48:59.225Z,7.38
2022-08-19T17:51:44.909Z,6.88
2022-08-19T17:54:15.617Z,7.13
2022-08-19T17:56:43.674Z,7.07
2022-08-19T17:59:13.790Z,6.10
2022-08-19T18:01:52.630Z,6.80
2022-08-19T18:04:22.624Z,7.22
2022-08-19T18:06:53.657Z,7.50
2022-08-19T18:09:41.380Z,6.80
2022-08-19T18:12:11.612Z,6.97
2022-08-19T18:14:39.737Z,6.63
2022-08-19T18:17:10.015Z,6.00
2022-08-19T18:19:41.209Z,6.68
2022-08-19T18:22:11.829Z,7.07
2022-08-19T18:24:42.287Z,8.20
2022-08-19T18:27:10.115Z,6.07
2022-08-19T18:29:38.398Z,7.20
2022-08-19T18:32:12.593Z,6.88
2022-08-19T18:34:41.469Z,7.30
2022-08-19T18:37:09.316Z,7.72
2022-08-19T18:39:55.009Z,7.50
2022-08-19T18:42:41.044Z,7.90
2022-08-19T18:45:28.046Z,8.68
2022-08-19T18:48:27.118Z,7.80
2022-08-19T18:50:57.127Z,8.57
2022-08-19T18:53:25.275Z,8.30
2022-08-19T18:55:53.994Z,8.68
2022-08-19T18:58:33.988Z,8.65
2022-08-19T19:01:11.327Z,8.98
2022-08-19T19:03:45.405Z,8.57
2022-08-19T19:06:19.480Z,9.35
2022-08-19T19:08:47.241Z,9.00
2022-08-19T19:11:26.806Z,8.80
2022-08-19T19:13:54.150Z,9.40
2022-08-19T19:16:24.501Z,9.27
2022-08-19T19:18:52.908Z,8.10
2022-08-19T19:21:23.029Z,8.68
2022-08-19T19:23:51.002Z,9.45
2022-08-19T19:26:18.242Z,10.13
2022-08-19T19:28:48.581Z,8.60
2022-08-19T19:31:20.475Z,8.73
2022-08-19T19:33:47.435Z,9.70
2022-08-19T19:36:14.375Z,8.77
2022-08-19T19:38:48.575Z,9.15
2022-08-19T19:41:18.754Z,9.00
2022-08-19T19:43:45.902Z,8.70
2022-08-19T19:46:13.590Z,9.13
2022-08-19T19:48:40.552Z,8.75
2022-08-19T19:51:07.697Z,9.85
2022-08-19T19:53:35.086Z,10.20
2022-08-19T19:56:10.743Z,9.48
2022-08-19T19:58:37.974Z,10.63
2022-08-19T20:01:09.790Z,11.48
2022-08-19T20:03:36.881Z,13.40
